Main page
METAR-TAF:

METAR-TAF

Airports :

Gibraltar International Airport

Gibraltar, Gibraltar

latitude: 36-09N, longitude: 005-21W, elevation: 5 m

Current weather observation

The report was made 1 hour and 12 minutes ago, at 22:50 UTC
Wind 9 kt from the East
Temperature 22°C
Humidity 83%
Pressure 1018 hPa
Visibility 10 km or more

METAR: LXGB 052250Z AUTO 09009KT 9999 // NCD 22/19 Q1018

Time: 02:02 (00:02 UTC)

Forecast

The report was made 10 hours and 34 minutes ago, at 13:28 UTC
Forecast valid from 05 at 15 UTC to 05 at 23 UTC
Wind 10 kt from the East
Visibility 10 km or more
Few clouds at a height of 2500 ft

TAF: LXGB 051328Z 0515/0523 10010KT 9999 FEW025

Weather observations and forecasts of more than 4000 airports (METAR and TAF reports).

The available stations are represented by yellow and red dots on the map.

Hover mouse over dot to see the name of the station.

Then click to see weather observations and forecasts.

To change the map : click on the green buttons with a black cross to zoom in, on the green button with a dash to zoom out, or on the green arrows for adjacent maps.


METAR-TAF: